createdAt,value
2018-12-17T00:00:08.425Z,1.30
2018-12-17T00:00:46.040Z,1.17
2018-12-17T00:01:23.151Z,0.97
2018-12-17T00:02:03.223Z,1.00
2018-12-17T00:02:41.348Z,1.27
2018-12-17T00:03:18.925Z,1.20
2018-12-17T00:03:59.698Z,1.17
2018-12-17T00:04:38.672Z,1.33
2018-12-17T00:05:16.906Z,1.13
2018-12-17T00:06:00.118Z,1.53
2018-12-17T00:06:37.342Z,1.37
2018-12-17T00:07:14.750Z,1.30
2018-12-17T00:07:57.390Z,1.30
2018-12-17T00:08:34.604Z,1.33
2018-12-17T00:09:12.345Z,1.10
2018-12-17T00:09:50.928Z,1.20
2018-12-17T00:10:29.090Z,1.20
2018-12-17T00:11:06.751Z,1.20
2018-12-17T00:11:44.327Z,1.10
2018-12-17T00:12:21.517Z,1.40
2018-12-17T00:12:58.820Z,1.40
2018-12-17T00:13:36.308Z,1.57
2018-12-17T00:14:13.600Z,1.10
2018-12-17T00:14:51.928Z,1.60
2018-12-17T00:15:32.284Z,1.50
2018-12-17T00:16:09.603Z,1.13
2018-12-17T00:16:46.988Z,1.57
2018-12-17T00:17:25.544Z,1.20
2018-12-17T00:18:03.162Z,1.90
2018-12-17T00:18:40.713Z,1.30
2018-12-17T00:19:21.906Z,1.30
2018-12-17T00:20:03.038Z,1.50
2018-12-17T00:20:41.363Z,1.20
2018-12-17T00:21:18.813Z,1.30
2018-12-17T00:21:56.500Z,1.50
2018-12-17T00:22:36.760Z,1.03
2018-12-17T00:23:14.250Z,1.50
2018-12-17T00:23:53.777Z,1.50
2018-12-17T00:24:31.444Z,1.70
2018-12-17T00:25:09.134Z,1.60
2018-12-17T00:25:50.499Z,1.30
2018-12-17T00:26:27.715Z,1.30
2018-12-17T00:27:05.396Z,1.70
2018-12-17T00:27:43.757Z,1.43
2018-12-17T00:28:21.940Z,1.90
2018-12-17T00:29:01.379Z,1.27
2018-12-17T00:29:46.807Z,1.50
2018-12-17T00:30:24.699Z,1.30
2018-12-17T00:31:02.214Z,1.30
2018-12-17T00:31:39.344Z,1.30
2018-12-17T00:32:17.687Z,1.00
2018-12-17T00:32:55.125Z,1.50
2018-12-17T00:33:35.125Z,1.40
2018-12-17T00:34:12.495Z,1.10
2018-12-17T00:34:49.773Z,1.20
2018-12-17T00:35:33.033Z,1.53
2018-12-17T00:36:11.237Z,1.17
2018-12-17T00:36:48.657Z,1.27
2018-12-17T00:37:27.255Z,1.40
2018-12-17T00:38:06.793Z,1.10
2018-12-17T00:38:44.344Z,1.50
2018-12-17T00:39:26.573Z,2.07
2018-12-17T00:40:04.751Z,1.17
2018-12-17T00:40:42.342Z,1.87
2018-12-17T00:41:22.387Z,1.53
2018-12-17T00:42:01.029Z,1.43
2018-12-17T00:42:40.356Z,1.80
2018-12-17T00:43:20.735Z,1.73
2018-12-17T00:44:00.055Z,1.43
2018-12-17T00:44:37.698Z,1.07
2018-12-17T00:45:15.296Z,1.57
2018-12-17T00:45:53.043Z,1.27
2018-12-17T00:46:30.323Z,1.10
2018-12-17T00:47:07.921Z,1.10
2018-12-17T00:47:45.547Z,1.30
2018-12-17T00:48:23.152Z,0.97
2018-12-17T00:49:00.439Z,1.00
2018-12-17T00:49:38.093Z,1.60
2018-12-17T00:50:17.355Z,1.17
2018-12-17T00:50:59.598Z,1.00
2018-12-17T00:51:37.812Z,0.80
2018-12-17T00:52:17.600Z,1.00
2018-12-17T00:52:56.608Z,0.90
2018-12-17T00:53:34.196Z,1.30
2018-12-17T00:54:11.575Z,0.70
2018-12-17T00:54:55.880Z,0.97
2018-12-17T00:55:37.563Z,1.00
2018-12-17T00:56:15.129Z,1.10
2018-12-17T00:56:53.079Z,0.70
2018-12-17T00:57:34.059Z,0.80
2018-12-17T00:58:15.227Z,1.07
2018-12-17T00:58:52.120Z,0.90
2018-12-17T00:59:29.615Z,0.87
2018-12-17T01:00:08.886Z,0.83
2018-12-17T01:00:46.577Z,1.00
2018-12-17T01:01:23.962Z,1.00
2018-12-17T01:02:01.555Z,1.43
2018-12-17T01:02:39.087Z,1.10
2018-12-17T01:03:21.344Z,1.40
2018-12-17T01:03:58.945Z,1.13
2018-12-17T01:04:36.707Z,1.17
2018-12-17T01:05:15.792Z,1.00
2018-12-17T01:05:53.246Z,1.20
2018-12-17T01:06:36.459Z,1.10
2018-12-17T01:07:19.808Z,0.90
2018-12-17T01:08:01.454Z,0.80
2018-12-17T01:08:40.712Z,0.60
2018-12-17T01:09:18.156Z,0.70
2018-12-17T01:09:59.826Z,0.90
2018-12-17T01:10:37.116Z,0.87
2018-12-17T01:11:14.562Z,1.37
2018-12-17T01:11:52.468Z,0.90
2018-12-17T01:12:29.840Z,1.00
2018-12-17T01:13:07.277Z,0.90
2018-12-17T01:13:44.890Z,1.00
2018-12-17T01:14:22.456Z,1.27
2018-12-17T01:14:59.873Z,0.70
2018-12-17T01:15:42.152Z,1.23
2018-12-17T01:16:19.524Z,1.13
2018-12-17T01:16:58.068Z,1.00
2018-12-17T01:17:40.748Z,1.03
2018-12-17T01:18:18.239Z,1.27
2018-12-17T01:18:55.941Z,1.30
2018-12-17T01:19:35.763Z,1.00
2018-12-17T01:23:18.710Z,0.77
2018-12-17T01:23:56.429Z,1.20
2018-12-17T01:24:35.184Z,1.30
2018-12-17T01:25:15.305Z,1.83
2018-12-17T01:25:52.797Z,2.57
2018-12-17T01:26:34.892Z,1.30
2018-12-17T01:27:12.115Z,1.30
2018-12-17T01:27:49.958Z,1.50
2018-12-17T01:28:28.543Z,1.33
2018-12-17T01:29:05.692Z,1.10
2018-12-17T01:29:43.313Z,1.20
2018-12-17T01:30:20.626Z,1.30
2018-12-17T01:30:58.129Z,1.27
2018-12-17T01:31:35.846Z,1.30
2018-12-17T01:32:13.255Z,1.00
2018-12-17T01:32:51.603Z,1.20
2018-12-17T01:33:30.237Z,1.90
2018-12-17T01:34:11.582Z,1.27
2018-12-17T01:34:49.357Z,1.20
2018-12-17T01:35:27.343Z,2.60
2018-12-17T01:36:05.709Z,2.33
2018-12-17T01:36:43.467Z,2.20
2018-12-17T01:37:22.819Z,2.30
2018-12-17T01:38:02.921Z,1.77
2018-12-17T01:38:41.021Z,2.03
2018-12-17T01:39:18.597Z,1.43
2018-12-17T01:40:00.877Z,1.80
2018-12-17T01:40:39.880Z,1.60
2018-12-17T01:41:17.479Z,2.33
2018-12-17T01:41:55.944Z,1.50
2018-12-17T01:42:37.065Z,1.93
2018-12-17T01:43:14.341Z,1.70
2018-12-17T01:43:52.144Z,1.20
2018-12-17T01:44:29.426Z,1.30
2018-12-17T01:45:10.906Z,1.53
2018-12-17T01:45:55.345Z,1.10
2018-12-17T01:46:35.925Z,1.43
2018-12-17T01:47:13.546Z,1.60
2018-12-17T01:47:50.992Z,1.20
2018-12-17T01:48:29.050Z,1.70
2018-12-17T01:49:06.752Z,1.97
2018-12-17T01:49:44.119Z,1.37
2018-12-17T01:50:21.646Z,1.03
2018-12-17T01:50:59.577Z,1.13
2018-12-17T01:51:37.046Z,1.30
2018-12-17T01:52:18.429Z,1.20
2018-12-17T01:52:56.291Z,1.07
2018-12-17T01:53:33.625Z,1.13
2018-12-17T01:54:14.399Z,1.47
2018-12-17T01:54:52.460Z,0.87
2018-12-17T01:55:29.876Z,1.27
2018-12-17T01:56:07.182Z,1.30
2018-12-17T01:56:44.311Z,1.00
2018-12-17T01:57:23.353Z,0.90
2018-12-17T01:58:07.920Z,1.10
2018-12-17T01:58:46.145Z,0.80
2018-12-17T01:59:23.451Z,0.80
2018-12-17T02:00:01.689Z,0.70
2018-12-17T02:00:39.923Z,1.20
2018-12-17T02:01:17.316Z,1.03
2018-12-17T02:01:57.588Z,1.20
2018-12-17T02:02:35.059Z,0.97
2018-12-17T02:03:12.449Z,0.93
2018-12-17T02:03:55.458Z,0.60
2018-12-17T02:04:33.007Z,0.87
2018-12-17T02:05:10.770Z,0.93
2018-12-17T02:05:49.502Z,1.20
2018-12-17T02:06:28.646Z,0.80
2018-12-17T02:07:06.975Z,1.10
2018-12-17T02:07:44.264Z,1.00
2018-12-17T02:08:21.655Z,0.90
2018-12-17T02:09:00.368Z,1.43
2018-12-17T02:09:37.709Z,1.00
2018-12-17T02:10:14.826Z,0.73
2018-12-17T02:10:54.549Z,1.20
2018-12-17T02:11:32.156Z,1.10
2018-12-17T02:12:09.800Z,1.17
2018-12-17T02:12:48.104Z,1.43
2018-12-17T02:13:30.081Z,1.00
2018-12-17T02:14:08.272Z,1.50
2018-12-17T02:14:46.200Z,1.10
2018-12-17T02:15:25.140Z,1.07
2018-12-17T02:16:02.749Z,0.80
2018-12-17T02:16:40.212Z,1.27
2018-12-17T02:17:20.593Z,0.90
2018-12-17T02:17:58.271Z,0.83
2018-12-17T02:18:37.690Z,0.97
2018-12-17T02:19:15.797Z,1.20
2018-12-17T02:19:56.992Z,0.60
2018-12-17T02:20:34.942Z,1.17
2018-12-17T02:21:12.974Z,1.17
2018-12-17T02:21:50.505Z,0.90
2018-12-17T02:22:28.172Z,1.47
2018-12-17T02:23:05.571Z,0.80
2018-12-17T02:23:43.000Z,1.83
2018-12-17T02:24:20.456Z,1.27
2018-12-17T02:24:58.167Z,1.30
2018-12-17T02:25:36.384Z,1.07
2018-12-17T02:26:13.794Z,0.80
2018-12-17T02:26:54.818Z,1.20
2018-12-17T02:27:33.365Z,1.00
2018-12-17T02:28:10.781Z,1.10
2018-12-17T02:28:51.630Z,1.00
2018-12-17T02:29:29.146Z,0.80
2018-12-17T02:30:07.830Z,1.13
2018-12-17T02:30:50.940Z,1.20
2018-12-17T02:31:28.414Z,1.17
2018-12-17T02:32:05.925Z,1.13
2018-12-17T02:32:43.173Z,1.30
2018-12-17T02:33:20.659Z,1.17
2018-12-17T02:34:02.273Z,0.90
2018-12-17T02:34:39.757Z,1.73
2018-12-17T02:35:17.462Z,1.13
2018-12-17T02:36:39.097Z,1.20
2018-12-17T02:37:20.458Z,1.10
2018-12-17T02:38:00.445Z,1.17
2018-12-17T02:38:39.976Z,1.23
2018-12-17T02:39:18.573Z,1.00
2018-12-17T02:39:57.666Z,0.93
2018-12-17T02:40:38.178Z,1.30
2018-12-17T02:41:16.931Z,1.43
2018-12-17T02:41:55.112Z,1.17
2018-12-17T02:42:33.542Z,1.30
2018-12-17T02:43:12.138Z,1.20
2018-12-17T02:43:49.966Z,1.30
2018-12-17T02:44:29.779Z,1.63
2018-12-17T02:45:07.266Z,1.67
2018-12-17T02:45:44.601Z,1.40
2018-12-17T02:46:26.901Z,1.10
2018-12-17T02:47:04.961Z,1.40
2018-12-17T02:47:48.606Z,1.00
2018-12-17T02:48:26.273Z,1.53
2018-12-17T02:49:07.371Z,1.40
2018-12-17T02:49:44.874Z,1.30
2018-12-17T02:50:22.293Z,1.20
2018-12-17T02:51:01.579Z,1.60
2018-12-17T02:51:39.662Z,1.40
2018-12-17T02:52:17.046Z,1.27
2018-12-17T02:52:54.563Z,1.43
2018-12-17T02:53:31.995Z,1.13
2018-12-17T02:54:09.532Z,1.20
2018-12-17T02:54:46.957Z,1.07
2018-12-17T02:55:24.594Z,0.93
2018-12-17T02:56:02.026Z,1.70
2018-12-17T02:56:39.314Z,1.40
2018-12-17T02:57:16.944Z,1.37
2018-12-17T02:57:54.406Z,1.00
2018-12-17T02:58:34.397Z,0.90
2018-12-17T02:59:12.803Z,0.80
2018-12-17T02:59:50.179Z,0.90
2018-12-17T03:00:27.840Z,0.87
2018-12-17T03:01:05.249Z,1.10
2018-12-17T03:01:42.968Z,1.30
2018-12-17T03:02:20.985Z,1.20
2018-12-17T03:03:03.777Z,0.70
2018-12-17T03:03:41.200Z,1.00
2018-12-17T03:04:18.604Z,0.70
2018-12-17T03:04:59.000Z,0.93
2018-12-17T03:05:36.645Z,1.00
2018-12-17T03:06:13.751Z,0.97
2018-12-17T03:06:55.160Z,1.20
2018-12-17T03:07:32.985Z,0.80
2018-12-17T03:08:10.411Z,1.30
2018-12-17T03:08:54.986Z,1.13
2018-12-17T03:09:33.142Z,1.00
2018-12-17T03:10:10.875Z,0.97
2018-12-17T03:10:49.190Z,0.77
2018-12-17T03:11:26.489Z,0.97
2018-12-17T03:12:04.390Z,0.73
2018-12-17T03:12:41.955Z,0.90
2018-12-17T03:13:19.412Z,1.10
2018-12-17T03:13:57.171Z,0.90
2018-12-17T03:14:34.577Z,0.83
2018-12-17T03:15:11.839Z,0.93
2018-12-17T03:15:49.465Z,0.87
2018-12-17T03:16:27.073Z,1.23
2018-12-17T03:17:04.077Z,1.10
2018-12-17T03:17:48.603Z,1.00
2018-12-17T03:18:31.373Z,1.30
2018-12-17T03:19:24.174Z,1.00
2018-12-17T03:20:10.225Z,1.23
2018-12-17T03:20:48.191Z,0.93
2018-12-17T03:21:25.714Z,1.20
2018-12-17T03:22:06.653Z,1.27
2018-12-17T03:22:43.995Z,0.90
2018-12-17T03:23:21.482Z,1.33
2018-12-17T03:24:01.493Z,1.60
2018-12-17T03:24:38.871Z,1.50
2018-12-17T03:25:16.241Z,1.13
2018-12-17T03:25:54.866Z,1.37
2018-12-17T03:26:32.163Z,0.90
2018-12-17T03:27:09.858Z,1.47
2018-12-17T03:27:47.694Z,1.00
2018-12-17T03:28:25.102Z,0.80
2018-12-17T03:29:02.545Z,1.07
2018-12-17T03:29:45.799Z,1.30
2018-12-17T03:30:23.129Z,1.10
2018-12-17T03:31:00.302Z,1.57
2018-12-17T03:31:39.914Z,1.63
2018-12-17T03:32:16.841Z,1.30
2018-12-17T03:32:54.518Z,0.90
2018-12-17T03:33:36.102Z,0.97
2018-12-17T03:34:14.538Z,1.23
2018-12-17T03:34:52.237Z,1.27
2018-12-17T03:35:33.629Z,1.67
2018-12-17T03:36:10.966Z,1.20
2018-12-17T03:36:48.490Z,0.87
2018-12-17T03:37:27.485Z,0.90
2018-12-17T03:38:05.135Z,0.80
2018-12-17T03:38:42.628Z,1.57
2018-12-17T03:39:19.867Z,0.83
2018-12-17T03:39:57.813Z,0.97
2018-12-17T03:40:35.558Z,1.13
2018-12-17T03:42:07.899Z,1.10
2018-12-17T03:42:45.257Z,1.33
2018-12-17T03:43:23.585Z,1.03
2018-12-17T03:44:01.730Z,1.17
2018-12-17T03:44:39.206Z,0.80
2018-12-17T03:45:16.859Z,1.40
2018-12-17T03:45:54.759Z,1.10
2018-12-17T03:46:32.099Z,1.00
2018-12-17T03:47:09.526Z,1.40
2018-12-17T03:47:50.170Z,1.10
2018-12-17T03:48:27.809Z,1.27
2018-12-17T03:49:05.305Z,0.93
2018-12-17T03:49:47.687Z,1.03
2018-12-17T03:50:24.827Z,0.93
2018-12-17T03:51:02.853Z,1.00
2018-12-17T03:51:47.974Z,1.00
2018-12-17T03:52:25.457Z,0.90
2018-12-17T03:53:03.769Z,1.10
2018-12-17T03:53:42.014Z,0.97
2018-12-17T03:54:20.982Z,1.00
2018-12-17T03:54:57.998Z,1.10
2018-12-17T03:55:35.221Z,1.30
2018-12-17T03:56:12.506Z,1.10
2018-12-17T03:56:49.864Z,1.07
2018-12-17T03:57:27.446Z,1.30
2018-12-17T03:58:05.956Z,1.03
2018-12-17T03:58:42.993Z,1.40
2018-12-17T03:59:20.283Z,1.40
2018-12-17T03:59:58.190Z,1.10
2018-12-17T04:00:35.818Z,1.20
2018-12-17T04:01:14.287Z,1.00
2018-12-17T04:01:51.959Z,0.80
2018-12-17T04:02:29.760Z,0.80
2018-12-17T04:03:08.418Z,1.20
2018-12-17T04:03:51.654Z,1.30
2018-12-17T04:04:29.171Z,1.20
2018-12-17T04:05:06.682Z,1.20
2018-12-17T04:05:48.284Z,1.50
2018-12-17T04:06:27.699Z,1.40
2018-12-17T04:07:05.208Z,1.23
2018-12-17T04:07:51.067Z,1.50
2018-12-17T04:08:34.112Z,1.20
2018-12-17T04:09:11.542Z,1.37
2018-12-17T04:09:49.300Z,1.50
2018-12-17T04:10:28.181Z,1.17
2018-12-17T04:11:05.924Z,1.70
2018-12-17T04:11:43.376Z,1.27
2018-12-17T04:12:21.136Z,1.13
2018-12-17T04:13:03.948Z,1.27
2018-12-17T04:13:41.668Z,1.20
2018-12-17T04:14:19.145Z,1.00
2018-12-17T04:14:56.921Z,1.27
2018-12-17T04:15:35.774Z,1.47
2018-12-17T04:16:12.925Z,1.00
2018-12-17T04:16:50.277Z,1.10
2018-12-17T04:17:28.726Z,1.70
2018-12-17T04:18:07.446Z,1.20
2018-12-17T04:18:46.060Z,1.70
2018-12-17T04:19:23.566Z,1.73
2018-12-17T04:20:02.727Z,1.43
2018-12-17T04:20:40.182Z,2.03
2018-12-17T04:21:17.386Z,1.30
2018-12-17T04:21:54.870Z,1.57
2018-12-17T04:22:32.630Z,1.30
2018-12-17T04:23:09.621Z,1.23
2018-12-17T04:23:47.268Z,1.70
2018-12-17T04:24:25.593Z,1.70
2018-12-17T04:25:02.925Z,2.13
2018-12-17T04:25:40.318Z,1.10
2018-12-17T04:26:17.614Z,1.30
2018-12-17T04:26:55.298Z,1.60
2018-12-17T04:27:32.968Z,1.60
2018-12-17T04:28:14.819Z,1.87
2018-12-17T04:28:52.419Z,1.50
2018-12-17T04:29:29.717Z,1.33
2018-12-17T04:30:11.679Z,1.57
2018-12-17T04:30:49.214Z,1.93
2018-12-17T04:31:27.630Z,1.43
2018-12-17T04:32:05.361Z,1.60
2018-12-17T04:32:42.910Z,1.40
2018-12-17T04:33:20.305Z,1.30
2018-12-17T04:33:57.432Z,1.70
2018-12-17T04:34:34.962Z,2.27
2018-12-17T04:35:12.362Z,1.67
2018-12-17T04:35:51.394Z,1.80
2018-12-17T04:36:29.326Z,1.33
2018-12-17T04:37:06.881Z,1.40
2018-12-17T04:37:50.229Z,1.83
2018-12-17T04:38:28.049Z,2.10
2018-12-17T04:39:06.955Z,1.80
2018-12-17T04:39:45.606Z,2.37
2018-12-17T04:40:24.960Z,2.33
2018-12-17T04:41:02.655Z,1.97
2018-12-17T04:41:40.401Z,2.07
2018-12-17T04:42:18.030Z,1.97
2018-12-17T04:42:56.029Z,1.70
2018-12-17T04:43:36.359Z,1.70
2018-12-17T04:44:14.395Z,1.97
2018-12-17T04:44:52.162Z,1.57
2018-12-17T04:45:33.049Z,1.70
2018-12-17T04:46:11.190Z,1.83
2018-12-17T04:46:48.587Z,2.10
2018-12-17T04:47:27.081Z,1.83
2018-12-17T04:48:04.300Z,1.63
2018-12-17T04:48:43.031Z,2.33
2018-12-17T04:49:20.579Z,2.00
2018-12-17T04:49:58.373Z,1.87
2018-12-17T04:50:35.967Z,1.90
2018-12-17T04:51:15.623Z,2.40
2018-12-17T04:51:53.290Z,2.90
2018-12-17T04:52:31.715Z,2.23
2018-12-17T04:53:09.453Z,2.20
2018-12-17T04:53:46.792Z,2.20
2018-12-17T04:54:28.127Z,2.63
2018-12-17T04:55:06.619Z,2.20
2018-12-17T04:55:44.112Z,2.43
2018-12-17T04:56:21.590Z,2.30
2018-12-17T04:56:59.248Z,2.80
2018-12-17T04:57:36.695Z,2.63
2018-12-17T04:58:18.472Z,2.20
2018-12-17T04:58:56.133Z,1.60
2018-12-17T04:59:33.490Z,2.93
2018-12-17T05:00:12.426Z,2.00
2018-12-17T05:00:50.017Z,2.60
2018-12-17T05:01:29.525Z,1.97
2018-12-17T05:02:09.793Z,2.23
2018-12-17T05:02:47.441Z,2.40
2018-12-17T05:03:24.538Z,2.27
2018-12-17T05:04:05.059Z,1.90
2018-12-17T05:04:42.429Z,2.77
2018-12-17T05:05:19.994Z,3.03
2018-12-17T05:05:57.216Z,2.27
2018-12-17T05:06:34.707Z,1.80
2018-12-17T05:07:12.397Z,1.83
2018-12-17T05:07:49.954Z,2.20
2018-12-17T05:08:31.743Z,1.80
2018-12-17T05:09:10.913Z,2.53
2018-12-17T05:09:48.303Z,2.50
2018-12-17T05:10:25.821Z,2.50
2018-12-17T05:11:03.545Z,2.33
2018-12-17T05:11:43.554Z,3.20
2018-12-17T05:12:22.897Z,2.47
2018-12-17T05:13:00.057Z,2.70
2018-12-17T05:13:38.708Z,2.83
2018-12-17T05:14:20.978Z,2.37
2018-12-17T05:14:58.630Z,2.70
2018-12-17T05:15:36.001Z,2.77
2018-12-17T05:16:14.888Z,2.80
2018-12-17T05:16:52.371Z,2.53
2018-12-17T05:17:29.558Z,2.37
2018-12-17T05:18:08.270Z,3.10
2018-12-17T05:18:46.619Z,2.17
2018-12-17T05:19:23.699Z,2.97
2018-12-17T05:20:01.832Z,2.43
2018-12-17T05:20:39.421Z,2.57
2018-12-17T05:21:16.847Z,2.40
2018-12-17T05:21:54.631Z,2.77
2018-12-17T05:22:34.811Z,1.80
2018-12-17T05:23:12.300Z,2.73
2018-12-17T05:23:49.686Z,2.53
2018-12-17T05:24:29.326Z,2.93
2018-12-17T05:25:07.058Z,2.50
2018-12-17T05:25:44.377Z,2.37
2018-12-17T05:26:23.560Z,2.30
2018-12-17T05:27:01.421Z,2.40
2018-12-17T05:27:38.868Z,2.50
2018-12-17T05:28:18.403Z,3.40
2018-12-17T05:28:55.873Z,3.40
2018-12-17T05:29:33.372Z,2.60
2018-12-17T05:30:11.674Z,3.00
2018-12-17T05:30:49.310Z,3.07
2018-12-17T05:31:26.735Z,2.60
2018-12-17T05:32:04.008Z,2.53
2018-12-17T05:32:41.329Z,3.03
2018-12-17T05:33:18.595Z,2.60
2018-12-17T05:33:58.582Z,3.00
2018-12-17T05:34:36.075Z,2.60
2018-12-17T05:35:14.444Z,2.73
2018-12-17T05:35:52.007Z,2.80
2018-12-17T05:36:29.910Z,3.50
2018-12-17T05:37:07.646Z,3.27
2018-12-17T05:37:52.719Z,3.13
2018-12-17T05:38:29.843Z,2.80
2018-12-17T05:39:08.601Z,3.43
2018-12-17T05:39:50.791Z,3.37
2018-12-17T05:40:28.320Z,3.80
2018-12-17T05:41:05.253Z,3.07
2018-12-17T05:41:44.777Z,3.27
2018-12-17T05:42:22.238Z,2.87
2018-12-17T05:43:00.587Z,3.53
2018-12-17T05:43:38.582Z,3.60
2018-12-17T05:44:16.002Z,2.67
2018-12-17T05:44:53.457Z,3.20
2018-12-17T05:45:36.986Z,3.20
2018-12-17T05:46:15.518Z,3.10
2018-12-17T05:46:53.477Z,3.37
2018-12-17T05:47:32.114Z,4.70
2018-12-17T05:48:14.474Z,3.23
2018-12-17T05:48:52.122Z,3.63
2018-12-17T05:49:34.172Z,3.00
2018-12-17T05:50:11.688Z,3.97
2018-12-17T05:50:49.131Z,3.03
2018-12-17T05:51:27.987Z,3.73
2018-12-17T05:52:05.377Z,3.10
2018-12-17T05:52:43.670Z,3.40
2018-12-17T05:53:21.474Z,3.20
2018-12-17T05:53:59.702Z,3.80
2018-12-17T05:54:37.142Z,3.80
2018-12-17T05:55:18.221Z,3.40
2018-12-17T05:55:56.462Z,3.07
2018-12-17T05:56:40.065Z,3.30
2018-12-17T05:57:18.980Z,3.07
2018-12-17T05:58:00.829Z,3.07
2018-12-17T05:58:38.271Z,3.53
2018-12-17T05:59:15.870Z,3.10
2018-12-17T05:59:55.558Z,3.23
2018-12-17T06:00:33.666Z,3.40
2018-12-17T06:01:11.368Z,3.37
2018-12-17T06:01:49.390Z,3.67
2018-12-17T06:02:26.867Z,3.37
2018-12-17T06:03:04.521Z,4.37
2018-12-17T06:03:46.682Z,3.43
2018-12-17T06:04:24.477Z,3.90
2018-12-17T06:05:02.012Z,3.20
2018-12-17T06:05:44.037Z,3.10
2018-12-17T06:06:23.726Z,3.70
2018-12-17T06:07:02.534Z,3.33
2018-12-17T06:07:40.213Z,3.33
2018-12-17T06:08:19.913Z,3.73
2018-12-17T06:08:57.480Z,3.10
2018-12-17T06:09:35.163Z,3.07
2018-12-17T06:10:13.368Z,3.73
2018-12-17T06:10:52.250Z,3.13
2018-12-17T06:11:31.640Z,3.03
2018-12-17T06:12:09.246Z,4.00
2018-12-17T06:12:46.702Z,3.20
2018-12-17T06:13:24.010Z,3.70
2018-12-17T06:14:01.361Z,3.50
2018-12-17T06:14:38.940Z,3.23
2018-12-17T06:15:16.549Z,3.13
2018-12-17T06:15:55.138Z,2.97
2018-12-17T06:16:32.691Z,3.80
2018-12-17T06:17:10.400Z,2.97
2018-12-17T06:17:49.910Z,2.63
2018-12-17T06:18:33.907Z,3.70
2018-12-17T06:19:11.382Z,2.90
2018-12-17T06:19:52.845Z,3.17
2018-12-17T06:20:31.056Z,2.60
2018-12-17T06:21:08.947Z,3.07
2018-12-17T06:21:46.460Z,2.80
2018-12-17T06:22:25.104Z,2.57
2018-12-17T06:23:02.816Z,2.60
2018-12-17T06:23:40.734Z,2.97
2018-12-17T06:24:18.120Z,2.90
2018-12-17T06:24:57.174Z,2.97
2018-12-17T06:25:35.020Z,2.70
2018-12-17T06:26:12.442Z,2.50
2018-12-17T06:26:53.090Z,2.70
2018-12-17T06:27:36.606Z,2.23
2018-12-17T06:28:10.673Z,2.00
2018-12-17T06:28:48.463Z,2.17
2018-12-17T06:29:25.855Z,1.87
2018-12-17T06:30:03.209Z,2.50
2018-12-17T06:30:41.762Z,2.13
2018-12-17T06:31:19.251Z,2.00
2018-12-17T06:32:06.895Z,2.47
2018-12-17T06:32:47.811Z,2.97
2018-12-17T06:33:25.507Z,2.50
2018-12-17T06:34:03.810Z,2.60
2018-12-17T06:34:42.866Z,2.73
2018-12-17T06:35:20.201Z,2.47
2018-12-17T06:35:58.065Z,2.80
2018-12-17T06:36:35.290Z,2.50
2018-12-17T06:37:12.994Z,2.53
2018-12-17T06:37:50.763Z,2.90
2018-12-17T06:38:28.205Z,2.40
2018-12-17T06:39:06.834Z,2.07
2018-12-17T06:39:44.070Z,1.90
2018-12-17T06:40:21.645Z,2.00
2018-12-17T06:41:01.251Z,3.07
2018-12-17T06:41:39.003Z,2.00
2018-12-17T06:42:16.334Z,2.47
2018-12-17T06:42:53.943Z,2.60
2018-12-17T06:43:32.397Z,2.27
2018-12-17T06:44:11.261Z,2.60
2018-12-17T06:44:54.707Z,1.77
2018-12-17T06:45:32.153Z,2.20
2018-12-17T06:46:09.624Z,2.70
2018-12-17T06:46:50.409Z,1.90
2018-12-17T06:47:27.873Z,2.23
2018-12-17T06:48:05.062Z,2.20
2018-12-17T06:48:42.783Z,2.87
2018-12-17T06:49:23.830Z,2.83
2018-12-17T06:50:01.399Z,2.53
2018-12-17T06:50:38.791Z,2.70
2018-12-17T06:51:15.862Z,2.33
2018-12-17T06:51:54.549Z,2.33
2018-12-17T06:52:35.466Z,2.63
2018-12-17T06:53:12.828Z,2.70
2018-12-17T06:53:50.359Z,2.40
2018-12-17T06:54:30.476Z,2.47
2018-12-17T06:55:08.211Z,3.10
2018-12-17T06:55:45.584Z,2.70
2018-12-17T06:56:24.611Z,3.10
2018-12-17T06:57:01.804Z,2.70
2018-12-17T06:57:40.184Z,2.37
2018-12-17T06:58:17.943Z,3.13
2018-12-17T06:58:55.229Z,2.90
2018-12-17T06:59:33.714Z,2.80
2018-12-17T07:00:11.606Z,2.67
2018-12-17T07:00:49.292Z,2.37
2018-12-17T07:01:28.104Z,2.37
2018-12-17T07:02:08.081Z,2.57
2018-12-17T07:02:45.561Z,2.47
2018-12-17T07:03:23.343Z,2.33
2018-12-17T07:04:01.091Z,2.37
2018-12-17T07:04:38.853Z,3.03
2018-12-17T07:05:16.491Z,2.27
2018-12-17T07:05:54.165Z,2.53
2018-12-17T07:06:31.593Z,2.33
2018-12-17T07:07:10.021Z,1.93
2018-12-17T07:07:47.320Z,2.63
2018-12-17T07:08:30.240Z,2.00
2018-12-17T07:09:08.830Z,2.60
2018-12-17T07:09:46.444Z,1.53
2018-12-17T07:10:24.960Z,1.87
2018-12-17T07:11:03.210Z,1.93
2018-12-17T07:11:41.653Z,1.90
2018-12-17T07:12:19.300Z,1.97
2018-12-17T07:12:57.530Z,2.00
2018-12-17T07:13:34.909Z,1.90
2018-12-17T07:14:12.469Z,1.60
2018-12-17T07:14:50.751Z,2.17
2018-12-17T07:15:28.486Z,1.90
2018-12-17T07:16:05.889Z,1.67
2018-12-17T07:16:43.212Z,1.63
2018-12-17T07:17:20.815Z,2.00
2018-12-17T07:17:59.357Z,1.70
2018-12-17T07:18:36.276Z,1.97
2018-12-17T07:19:13.443Z,1.67
2018-12-17T07:19:51.580Z,1.60
2018-12-17T07:20:28.769Z,1.70
2018-12-17T07:21:06.281Z,1.83
2018-12-17T07:21:53.361Z,1.90
2018-12-17T07:22:34.248Z,2.00
2018-12-17T07:23:11.792Z,1.37
2018-12-17T07:23:49.191Z,1.53
2018-12-17T07:24:29.482Z,1.93
2018-12-17T07:25:06.987Z,1.40
2018-12-17T07:25:44.438Z,1.70
2018-12-17T07:26:24.633Z,1.43
2018-12-17T07:27:02.043Z,1.97
2018-12-17T07:27:39.786Z,1.60
2018-12-17T07:28:21.614Z,1.53
2018-12-17T07:28:59.610Z,1.80
2018-12-17T07:29:36.892Z,2.00
2018-12-17T07:30:13.891Z,1.33
2018-12-17T07:30:51.351Z,2.30
2018-12-17T07:31:28.815Z,1.90
2018-12-17T07:32:05.775Z,1.80
2018-12-17T07:32:43.049Z,1.70
2018-12-17T07:33:20.432Z,1.90
2018-12-17T07:33:57.558Z,1.43
2018-12-17T07:34:34.983Z,1.53
2018-12-17T07:35:12.204Z,1.53
2018-12-17T07:35:50.530Z,1.70
2018-12-17T07:36:28.544Z,1.90
2018-12-17T07:37:05.809Z,2.00
2018-12-17T07:37:43.055Z,2.00
2018-12-17T07:38:20.166Z,1.87
2018-12-17T07:39:00.766Z,1.50
2018-12-17T07:39:46.717Z,1.50
2018-12-17T07:40:29.454Z,1.50
2018-12-17T07:41:07.150Z,1.80
2018-12-17T07:41:46.132Z,1.70
2018-12-17T07:42:24.853Z,1.90
2018-12-17T07:43:02.222Z,1.80
2018-12-17T07:43:45.624Z,1.90
2018-12-17T07:44:28.448Z,1.73
2018-12-17T07:45:05.991Z,1.70
2018-12-17T07:45:43.634Z,2.07
2018-12-17T07:46:32.705Z,2.40
2018-12-17T07:47:20.492Z,1.40
2018-12-17T07:48:05.740Z,1.43
2018-12-17T07:48:43.359Z,2.00
2018-12-17T07:49:20.453Z,1.90
2018-12-17T07:49:57.814Z,1.33
2018-12-17T07:50:35.391Z,1.43
2018-12-17T07:51:12.739Z,1.97
2018-12-17T07:51:51.080Z,1.83
2018-12-17T07:52:29.838Z,1.60
2018-12-17T07:53:07.377Z,1.47
2018-12-17T07:53:47.716Z,1.70
2018-12-17T07:54:30.091Z,1.80
2018-12-17T07:55:12.313Z,1.43
2018-12-17T07:56:00.748Z,1.87
2018-12-17T07:56:38.579Z,1.30
2018-12-17T07:57:17.044Z,1.53
2018-12-17T07:57:54.994Z,1.33
2018-12-17T07:58:33.261Z,1.50
2018-12-17T07:59:11.306Z,1.20
2018-12-17T07:59:56.920Z,1.40
2018-12-17T08:00:39.107Z,1.40
2018-12-17T08:01:18.738Z,1.30
2018-12-17T08:01:56.114Z,1.27
2018-12-17T08:02:38.235Z,1.37
2018-12-17T08:03:15.645Z,1.13
2018-12-17T08:03:53.100Z,1.07
2018-12-17T08:04:31.659Z,1.00
2018-12-17T08:05:10.579Z,1.10
2018-12-17T08:05:48.295Z,1.00
2018-12-17T08:06:26.755Z,1.20
2018-12-17T08:07:06.617Z,1.10
2018-12-17T08:07:44.317Z,1.00
2018-12-17T08:08:21.816Z,1.00
2018-12-17T08:09:00.106Z,1.20
2018-12-17T08:09:37.868Z,0.67
2018-12-17T08:10:17.191Z,0.90
2018-12-17T08:10:54.495Z,0.67
2018-12-17T08:11:31.516Z,0.80
2018-12-17T08:12:09.056Z,0.73
2018-12-17T08:12:48.802Z,0.70
2018-12-17T08:13:26.885Z,0.60
2018-12-17T08:14:04.081Z,0.87
2018-12-17T08:14:41.986Z,0.70
2018-12-17T08:15:19.449Z,0.63
2018-12-17T08:16:02.436Z,0.70
2018-12-17T08:16:46.025Z,0.70
2018-12-17T08:17:25.917Z,0.70
2018-12-17T08:18:12.623Z,0.67
2018-12-17T08:18:50.351Z,0.60
2018-12-17T08:19:29.049Z,0.70
2018-12-17T08:20:07.033Z,0.70
2018-12-17T08:20:45.337Z,0.90
2018-12-17T08:21:22.856Z,0.90
2018-12-17T08:22:00.635Z,0.60
2018-12-17T08:22:45.721Z,0.80
2018-12-17T08:23:27.353Z,0.97
2018-12-17T08:24:05.136Z,1.00
2018-12-17T08:24:46.554Z,1.73
2018-12-17T08:25:26.241Z,1.80
2018-12-17T08:26:14.057Z,2.03
2018-12-17T08:26:52.493Z,1.50
2018-12-17T08:27:32.649Z,1.77
2018-12-17T08:28:15.349Z,2.40
2018-12-17T08:29:00.750Z,2.40
2018-12-17T08:29:40.527Z,1.83
2018-12-17T08:30:21.142Z,1.23
2018-12-17T08:31:00.988Z,0.90
2018-12-17T08:31:38.485Z,0.97
2018-12-17T08:32:16.684Z,0.83
2018-12-17T08:32:54.427Z,1.30
2018-12-17T08:33:32.037Z,0.97
2018-12-17T08:34:12.137Z,1.10
2018-12-17T08:34:49.501Z,0.83
2018-12-17T08:35:26.728Z,0.90
2018-12-17T08:36:04.573Z,0.90
2018-12-17T08:36:42.163Z,1.00
2018-12-17T08:37:19.660Z,0.73
2018-12-17T08:37:57.729Z,0.70
2018-12-17T08:38:39.427Z,0.70
2018-12-17T08:39:17.034Z,1.03